sensor_id;sensor_type;location;lat;lon;timestamp;pressure;altitude;pressure_sealevel;temperature;humidity
66857;BME280;53766;50.280;19.160;2022-10-20T00:02:00;99488.94;;;18.42;54.04
66857;BME280;53766;50.280;19.160;2022-10-20T00:04:27;99486.44;;;18.41;53.85
66857;BME280;53766;50.280;19.160;2022-10-20T00:06:56;99493.44;;;18.42;54.03
66857;BME280;53766;50.280;19.160;2022-10-20T00:09:23;99486.44;;;18.41;53.87
66857;BME280;53766;50.280;19.160;2022-10-20T00:11:51;99496.31;;;18.40;53.91
66857;BME280;53766;50.280;19.160;2022-10-20T00:14:18;99493.63;;;18.40;54.04
66857;BME280;53766;50.280;19.160;2022-10-20T00:16:46;99491.13;;;18.39;53.85
66857;BME280;53766;50.280;19.160;2022-10-20T00:19:13;99491.13;;;18.39;53.96
66857;BME280;53766;50.280;19.160;2022-10-20T00:21:41;99490.31;;;18.38;53.88
66857;BME280;53766;50.280;19.160;2022-10-20T00:24:09;99492.13;;;18.38;53.95
66857;BME280;53766;50.280;19.160;2022-10-20T00:26:36;99485.97;;;18.37;53.78
66857;BME280;53766;50.280;19.160;2022-10-20T00:29:04;99491.31;;;18.37;53.90
66857;BME280;53766;50.280;19.160;2022-10-20T00:31:32;99487.00;;;18.36;53.73
66857;BME280;53766;50.280;19.160;2022-10-20T00:33:59;99480.84;;;18.36;53.99
66857;BME280;53766;50.280;19.160;2022-10-20T00:36:27;99477.31;;;18.35;53.90
66857;BME280;53766;50.280;19.160;2022-10-20T00:38:59;99479.16;;;18.35;53.88
66857;BME280;53766;50.280;19.160;2022-10-20T00:41:28;99478.34;;;18.34;53.85
66857;BME280;53766;50.280;19.160;2022-10-20T00:44:01;99486.34;;;18.34;53.84
66857;BME280;53766;50.280;19.160;2022-10-20T00:46:38;99482.00;;;18.33;53.88
66857;BME280;53766;50.280;19.160;2022-10-20T00:49:13;99477.69;;;18.32;53.81
66857;BME280;53766;50.280;19.160;2022-10-20T00:51:43;99482.19;;;18.32;53.58
66857;BME280;53766;50.280;19.160;2022-10-20T00:54:14;99472.53;;;18.30;53.80
66857;BME280;53766;50.280;19.160;2022-10-20T00:56:44;99487.69;;;18.30;53.54
66857;BME280;53766;50.280;19.160;2022-10-20T00:59:16;99480.69;;;18.29;53.73
66857;BME280;53766;50.280;19.160;2022-10-20T01:01:44;99469.41;;;18.27;53.56
66857;BME280;53766;50.280;19.160;2022-10-20T01:04:13;99472.06;;;18.27;53.67
66857;BME280;53766;50.280;19.160;2022-10-20T01:06:41;99470.38;;;18.26;53.67
66857;BME280;53766;50.280;19.160;2022-10-20T01:09:09;99474.91;;;18.25;53.62
66857;BME280;53766;50.280;19.160;2022-10-20T01:23:55;99485.09;;;18.22;53.34
66857;BME280;53766;50.280;19.160;2022-10-20T01:29:32;99479.09;;;18.20;53.52
66857;BME280;53766;50.280;19.160;2022-10-20T01:34:45;99480.94;;;18.19;53.33
66857;BME280;53766;50.280;19.160;2022-10-20T01:37:34;99481.09;;;18.18;53.40
66857;BME280;53766;50.280;19.160;2022-10-20T01:42:49;99475.13;;;18.16;53.38
66857;BME280;53766;50.280;19.160;2022-10-20T01:45:21;99477.63;;;18.17;53.09
66857;BME280;53766;50.280;19.160;2022-10-20T01:47:50;99468.97;;;18.15;53.21
66857;BME280;53766;50.280;19.160;2022-10-20T01:50:20;99478.81;;;18.15;53.24
66857;BME280;53766;50.280;19.160;2022-10-20T01:52:54;99477.97;;;18.14;53.27
66857;BME280;53766;50.280;19.160;2022-10-20T01:55:22;99473.63;;;18.13;53.08
66857;BME280;53766;50.280;19.160;2022-10-20T02:00:37;99475.47;;;18.13;53.17
66857;BME280;53766;50.280;19.160;2022-10-20T02:09:15;99472.97;;;18.11;52.97
66857;BME280;53766;50.280;19.160;2022-10-20T02:11:49;99477.50;;;18.11;53.00
66857;BME280;53766;50.280;19.160;2022-10-20T02:14:19;99482.81;;;18.11;52.99
66857;BME280;53766;50.280;19.160;2022-10-20T02:16:51;99474.00;;;18.10;52.99
66857;BME280;53766;50.280;19.160;2022-10-20T02:19:21;99475.84;;;18.09;53.10
66857;BME280;53766;50.280;19.160;2022-10-20T02:21:52;99468.84;;;18.08;52.91
66857;BME280;53766;50.280;19.160;2022-10-20T02:24:23;99469.66;;;18.09;52.80
66857;BME280;53766;50.280;19.160;2022-10-20T02:26:54;99475.84;;;18.09;52.93
66857;BME280;53766;50.280;19.160;2022-10-20T02:29:28;99478.50;;;18.09;52.77
66857;BME280;53766;50.280;19.160;2022-10-20T02:31:57;99481.19;;;18.09;52.79
66857;BME280;53766;50.280;19.160;2022-10-20T02:34:25;99475.00;;;18.09;52.97
66857;BME280;53766;50.280;19.160;2022-10-20T02:36:57;99480.16;;;18.11;52.91
66857;BME280;53766;50.280;19.160;2022-10-20T02:39:25;99481.19;;;18.09;53.03
66857;BME280;53766;50.280;19.160;2022-10-20T02:41:53;99475.84;;;18.09;52.88
66857;BME280;53766;50.280;19.160;2022-10-20T02:44:20;99475.84;;;18.09;53.00
66857;BME280;53766;50.280;19.160;2022-10-20T02:46:49;99481.19;;;18.09;53.03
66857;BME280;53766;50.280;19.160;2022-10-20T02:49:17;99486.50;;;18.09;53.11
66857;BME280;53766;50.280;19.160;2022-10-20T02:51:44;99489.19;;;18.09;52.93
66857;BME280;53766;50.280;19.160;2022-10-20T02:54:11;99491.00;;;18.09;53.01
66857;BME280;53766;50.280;19.160;2022-10-20T02:56:39;99497.19;;;18.09;53.01
66857;BME280;53766;50.280;19.160;2022-10-20T02:59:13;99493.66;;;18.09;53.08
66857;BME280;53766;50.280;19.160;2022-10-20T03:01:42;99491.19;;;18.07;52.91
66857;BME280;53766;50.280;19.160;2022-10-20T03:04:09;99490.16;;;18.08;52.93
66857;BME280;53766;50.280;19.160;2022-10-20T03:06:39;99501.66;;;18.09;53.08
66857;BME280;53766;50.280;19.160;2022-10-20T03:09:06;99505.50;;;18.06;53.08
66857;BME280;53766;50.280;19.160;2022-10-20T03:11:34;99509.84;;;18.07;53.00
66857;BME280;53766;50.280;19.160;2022-10-20T03:14:02;99509.00;;;18.07;53.10
66857;BME280;53766;50.280;19.160;2022-10-20T03:16:29;99521.34;;;18.08;52.95
66857;BME280;53766;50.280;19.160;2022-10-20T03:18:56;99521.50;;;18.06;52.98
66857;BME280;53766;50.280;19.160;2022-10-20T03:21:30;99518.84;;;18.06;53.18
66857;BME280;53766;50.280;19.160;2022-10-20T03:23:58;99518.00;;;18.06;53.13
66857;BME280;53766;50.280;19.160;2022-10-20T03:26:25;99516.16;;;18.06;52.91
66857;BME280;53766;50.280;19.160;2022-10-20T03:28:53;99518.00;;;18.06;53.08
66857;BME280;53766;50.280;19.160;2022-10-20T03:31:20;99517.19;;;18.05;53.05
66857;BME280;53766;50.280;19.160;2022-10-20T03:33:48;99521.66;;;18.05;53.09
66857;BME280;53766;50.280;19.160;2022-10-20T03:36:16;99522.53;;;18.05;52.96
66857;BME280;53766;50.280;19.160;2022-10-20T03:38:44;99522.53;;;18.05;53.08
66857;BME280;53766;50.280;19.160;2022-10-20T03:41:12;99521.66;;;18.05;53.04
66857;BME280;53766;50.280;19.160;2022-10-20T03:43:39;99520.84;;;18.04;52.82
66857;BME280;53766;50.280;19.160;2022-10-20T03:46:08;99513.88;;;18.03;52.90
66857;BME280;53766;50.280;19.160;2022-10-20T03:48:37;99520.84;;;18.04;53.10
66857;BME280;53766;50.280;19.160;2022-10-20T03:51:06;99524.53;;;18.03;52.99
66857;BME280;53766;50.280;19.160;2022-10-20T03:53:34;99510.34;;;18.03;52.90
66857;BME280;53766;50.280;19.160;2022-10-20T03:56:09;99501.53;;;18.02;53.01
66857;BME280;53766;50.280;19.160;2022-10-20T03:58:36;99509.53;;;18.02;53.04
66857;BME280;53766;50.280;19.160;2022-10-20T04:01:04;99507.69;;;18.03;52.91
66857;BME280;53766;50.280;19.160;2022-10-20T04:03:32;99507.69;;;18.03;52.87
66857;BME280;53766;50.280;19.160;2022-10-20T04:06:00;99503.53;;;18.00;53.16
66857;BME280;53766;50.280;19.160;2022-10-20T04:08:27;99502.56;;;18.01;52.97
66857;BME280;53766;50.280;19.160;2022-10-20T04:10:56;99502.56;;;18.01;52.99
66857;BME280;53766;50.280;19.160;2022-10-20T04:13:23;99499.88;;;18.01;52.88
66857;BME280;53766;50.280;19.160;2022-10-20T04:15:51;99499.88;;;18.01;52.96
66857;BME280;53766;50.280;19.160;2022-10-20T04:18:18;99500.88;;;18.00;52.90
66857;BME280;53766;50.280;19.160;2022-10-20T04:20:47;99499.88;;;18.01;53.15
66857;BME280;53766;50.280;19.160;2022-10-20T04:23:14;99497.38;;;18.00;52.87
66857;BME280;53766;50.280;19.160;2022-10-20T04:25:43;99498.22;;;18.00;52.80
66857;BME280;53766;50.280;19.160;2022-10-20T04:28:18;99499.06;;;18.01;52.92
66857;BME280;53766;50.280;19.160;2022-10-20T04:30:46;99485.91;;;17.99;52.83
66857;BME280;53766;50.280;19.160;2022-10-20T04:33:14;99484.22;;;17.98;52.89
66857;BME280;53766;50.280;19.160;2022-10-20T04:35:42;99484.22;;;17.98;52.95
66857;BME280;53766;50.280;19.160;2022-10-20T04:38:10;99490.56;;;17.97;52.90
66857;BME280;53766;50.280;19.160;2022-10-20T04:40:38;99495.75;;;17.99;52.80
66857;BME280;53766;50.280;19.160;2022-10-20T04:43:05;99487.91;;;17.97;52.76
66857;BME280;53766;50.280;19.160;2022-10-20T04:45:33;99487.91;;;17.97;52.71
66857;BME280;53766;50.280;19.160;2022-10-20T04:48:00;99495.09;;;17.97;52.84
66857;BME280;53766;50.280;19.160;2022-10-20T04:50:28;99500.41;;;17.97;52.84
66857;BME280;53766;50.280;19.160;2022-10-20T04:52:57;99496.91;;;17.96;52.84
66857;BME280;53766;50.280;19.160;2022-10-20T04:55:25;99496.91;;;17.96;52.73
66857;BME280;53766;50.280;19.160;2022-10-20T04:57:53;99502.22;;;17.96;52.81
66857;BME280;53766;50.280;19.160;2022-10-20T05:00:21;99507.75;;;17.95;52.85
66857;BME280;53766;50.280;19.160;2022-10-20T05:02:48;99505.09;;;17.95;52.86
66857;BME280;53766;50.280;19.160;2022-10-20T05:05:16;99505.09;;;17.95;52.89
66857;BME280;53766;50.280;19.160;2022-10-20T05:07:43;99509.56;;;17.94;52.85
66857;BME280;53766;50.280;19.160;2022-10-20T05:10:11;99507.91;;;17.93;52.84
66857;BME280;53766;50.280;19.160;2022-10-20T05:12:39;99507.09;;;17.93;52.84
66857;BME280;53766;50.280;19.160;2022-10-20T05:15:06;99506.28;;;17.92;52.89
66857;BME280;53766;50.280;19.160;2022-10-20T05:17:35;99503.59;;;17.92;52.93
66857;BME280;53766;50.280;19.160;2022-10-20T05:20:03;99511.41;;;17.94;52.88
66857;BME280;53766;50.280;19.160;2022-10-20T05:22:30;99506.28;;;17.92;53.13
66857;BME280;53766;50.280;19.160;2022-10-20T05:24:59;99499.94;;;17.93;53.04
66857;BME280;53766;50.280;19.160;2022-10-20T05:27:46;99506.28;;;17.92;53.21
66857;BME280;53766;50.280;19.160;2022-10-20T05:30:14;99514.28;;;17.92;53.25
66857;BME280;53766;50.280;19.160;2022-10-20T05:32:42;99514.28;;;17.92;53.28
66857;BME280;53766;50.280;19.160;2022-10-20T05:35:09;99513.25;;;17.93;53.41
66857;BME280;53766;50.280;19.160;2022-10-20T05:37:37;99511.59;;;17.92;53.37
66857;BME280;53766;50.280;19.160;2022-10-20T05:40:05;99511.59;;;17.92;53.49
66857;BME280;53766;50.280;19.160;2022-10-20T05:42:33;99524.94;;;17.92;53.40
66857;BME280;53766;50.280;19.160;2022-10-20T05:45:01;99524.94;;;17.92;53.63
66857;BME280;53766;50.280;19.160;2022-10-20T05:47:29;99515.25;;;17.91;53.55
66857;BME280;53766;50.280;19.160;2022-10-20T05:49:56;99515.25;;;17.91;53.46
66857;BME280;53766;50.280;19.160;2022-10-20T05:52:24;99520.59;;;17.91;53.40
66857;BME280;53766;50.280;19.160;2022-10-20T05:54:51;99522.44;;;17.91;53.58
66857;BME280;53766;50.280;19.160;2022-10-20T05:57:19;99524.28;;;17.90;53.43
66857;BME280;53766;50.280;19.160;2022-10-20T05:59:46;99523.41;;;17.89;53.33
66857;BME280;53766;50.280;19.160;2022-10-20T06:02:14;99527.94;;;17.89;53.41
66857;BME280;53766;50.280;19.160;2022-10-20T06:04:41;99526.09;;;17.89;53.34
66857;BME280;53766;50.280;19.160;2022-10-20T06:07:09;99527.94;;;17.89;53.28
66857;BME280;53766;50.280;19.160;2022-10-20T06:09:37;99534.06;;;17.89;53.11
66857;BME280;53766;50.280;19.160;2022-10-20T06:12:05;99538.59;;;17.89;53.20
66857;BME280;53766;50.280;19.160;2022-10-20T06:14:38;99539.41;;;17.89;53.20
66857;BME280;53766;50.280;19.160;2022-10-20T06:17:05;99543.91;;;17.89;53.20
66857;BME280;53766;50.280;19.160;2022-10-20T06:19:33;99539.41;;;17.89;53.17
66857;BME280;53766;50.280;19.160;2022-10-20T06:22:00;99538.59;;;17.89;53.02
66857;BME280;53766;50.280;19.160;2022-10-20T06:24:33;99542.28;;;17.88;52.99
66857;BME280;53766;50.280;19.160;2022-10-20T06:27:01;99548.41;;;17.88;53.07
66857;BME280;53766;50.280;19.160;2022-10-20T06:29:28;99549.25;;;17.89;53.09
66857;BME280;53766;50.280;19.160;2022-10-20T06:31:56;99542.28;;;17.88;53.05
66857;BME280;53766;50.280;19.160;2022-10-20T06:34:24;99541.25;;;17.89;53.03
66857;BME280;53766;50.280;19.160;2022-10-20T06:36:52;99543.91;;;17.89;52.81
66857;BME280;53766;50.280;19.160;2022-10-20T06:39:21;99543.91;;;17.89;52.90
66857;BME280;53766;50.280;19.160;2022-10-20T06:41:54;99544.94;;;17.88;52.85
66857;BME280;53766;50.280;19.160;2022-10-20T06:44:23;99536.94;;;17.88;52.82
66857;BME280;53766;50.280;19.160;2022-10-20T06:46:50;99546.56;;;17.89;52.84
66857;BME280;53766;50.280;19.160;2022-10-20T06:49:21;99543.09;;;17.88;52.71
66857;BME280;53766;50.280;19.160;2022-10-20T06:51:49;99544.75;;;17.89;52.74
66857;BME280;53766;50.280;19.160;2022-10-20T06:54:17;99544.75;;;17.89;52.76
66857;BME280;53766;50.280;19.160;2022-10-20T06:56:44;99544.56;;;17.91;52.54
66857;BME280;53766;50.280;19.160;2022-10-20T06:59:12;99545.41;;;17.92;52.52
66857;BME280;53766;50.280;19.160;2022-10-20T07:01:39;99554.25;;;17.92;52.49
66857;BME280;53766;50.280;19.160;2022-10-20T07:04:12;99555.88;;;17.93;52.48
66857;BME280;53766;50.280;19.160;2022-10-20T07:06:42;99552.22;;;17.94;52.41
66857;BME280;53766;50.280;19.160;2022-10-20T07:09:13;99553.88;;;17.95;52.29
66857;BME280;53766;50.280;19.160;2022-10-20T07:11:42;99548.56;;;17.95;52.33
66857;BME280;53766;50.280;19.160;2022-10-20T07:14:13;99551.06;;;17.97;52.43
66857;BME280;53766;50.280;19.160;2022-10-20T07:16:41;99553.53;;;17.98;52.28
66857;BME280;53766;50.280;19.160;2022-10-20T07:19:09;99548.19;;;17.98;52.26
66857;BME280;53766;50.280;19.160;2022-10-20T07:21:36;99542.03;;;17.98;52.30
66857;BME280;53766;50.280;19.160;2022-10-20T07:24:09;99547.22;;;17.99;52.25
66857;BME280;53766;50.280;19.160;2022-10-20T07:26:38;99546.19;;;18.00;52.22
66857;BME280;53766;50.280;19.160;2022-10-20T07:29:07;99547.88;;;18.01;52.21
66857;BME280;53766;50.280;19.160;2022-10-20T07:31:40;99547.03;;;18.01;52.06
66857;BME280;53766;50.280;19.160;2022-10-20T07:34:10;99550.53;;;18.01;52.20
66857;BME280;53766;50.280;19.160;2022-10-20T07:36:55;99550.16;;;18.04;52.15
66857;BME280;53766;50.280;19.160;2022-10-20T07:39:24;99551.84;;;18.05;52.07
66857;BME280;53766;50.280;19.160;2022-10-20T07:41:52;99552.84;;;18.04;52.07
66857;BME280;53766;50.280;19.160;2022-10-20T07:44:19;99555.34;;;18.06;52.04
66857;BME280;53766;50.280;19.160;2022-10-20T07:46:47;99554.50;;;18.05;52.12
66857;BME280;53766;50.280;19.160;2022-10-20T07:49:14;99560.66;;;18.06;52.08
66857;BME280;53766;50.280;19.160;2022-10-20T07:52:02;99558.66;;;18.08;52.06
66857;BME280;53766;50.280;19.160;2022-10-20T07:54:30;99554.16;;;18.08;52.11
66857;BME280;53766;50.280;19.160;2022-10-20T07:56:57;99558.66;;;18.08;52.17
66857;BME280;53766;50.280;19.160;2022-10-20T07:59:25;99545.16;;;18.09;52.07
66857;BME280;53766;50.280;19.160;2022-10-20T08:01:53;99543.31;;;18.10;52.08
66857;BME280;53766;50.280;19.160;2022-10-20T08:04:25;99543.31;;;18.10;51.99
66857;BME280;53766;50.280;19.160;2022-10-20T08:06:52;99552.13;;;18.11;52.35
66857;BME280;53766;50.280;19.160;2022-10-20T08:09:20;99537.78;;;18.12;52.03
66857;BME280;53766;50.280;19.160;2022-10-20T08:11:47;99543.13;;;18.12;52.03
66857;BME280;53766;50.280;19.160;2022-10-20T08:14:22;99540.47;;;18.12;52.07
66857;BME280;53766;50.280;19.160;2022-10-20T08:16:53;99541.13;;;18.14;52.00
66857;BME280;53766;50.280;19.160;2022-10-20T08:19:28;99535.78;;;18.14;51.97
66857;BME280;53766;50.280;19.160;2022-10-20T08:22:09;99544.44;;;18.16;52.03
66857;BME280;53766;50.280;19.160;2022-10-20T08:24:37;99540.94;;;18.15;51.96
66857;BME280;53766;50.280;19.160;2022-10-20T08:27:05;99545.28;;;18.16;52.13
66857;BME280;53766;50.280;19.160;2022-10-20T08:29:32;99533.78;;;18.16;52.10
66857;BME280;53766;50.280;19.160;2022-10-20T08:32:00;99544.28;;;18.17;51.91
66857;BME280;53766;50.280;19.160;2022-10-20T08:34:27;99547.75;;;18.18;51.99
66857;BME280;53766;50.280;19.160;2022-10-20T08:36:55;99550.44;;;18.18;52.04
66857;BME280;53766;50.280;19.160;2022-10-20T08:39:22;99544.09;;;18.19;51.92
66857;BME280;53766;50.280;19.160;2022-10-20T08:41:50;99537.75;;;18.20;51.95
66857;BME280;53766;50.280;19.160;2022-10-20T08:44:37;99536.75;;;18.21;51.96
66857;BME280;53766;50.280;19.160;2022-10-20T08:47:15;99547.44;;;18.21;52.10
66857;BME280;53766;50.280;19.160;2022-10-20T08:49:45;99532.41;;;18.20;52.10
66857;BME280;53766;50.280;19.160;2022-10-20T08:52:13;99530.41;;;18.22;51.77
66857;BME280;53766;50.280;19.160;2022-10-20T08:54:41;99520.75;;;18.21;52.13
66857;BME280;53766;50.280;19.160;2022-10-20T08:57:35;99529.41;;;18.23;52.11
66857;BME280;53766;50.280;19.160;2022-10-20T09:00:16;99525.72;;;18.24;51.91
66857;BME280;53766;50.280;19.160;2022-10-20T09:02:46;99530.25;;;18.23;52.03
66857;BME280;53766;50.280;19.160;2022-10-20T09:05:16;99526.75;;;18.23;52.05
66857;BME280;53766;50.280;19.160;2022-10-20T09:07:45;99522.06;;;18.25;52.07
66857;BME280;53766;50.280;19.160;2022-10-20T09:12:52;99521.06;;;18.26;52.13
66857;BME280;53766;50.280;19.160;2022-10-20T09:15:20;99515.72;;;18.26;52.07
66857;BME280;53766;50.280;19.160;2022-10-20T09:17:58;99517.41;;;18.27;52.09
66857;BME280;53766;50.280;19.160;2022-10-20T09:20:29;99512.88;;;18.27;52.11
66857;BME280;53766;50.280;19.160;2022-10-20T09:22:58;99505.72;;;18.28;52.18
66857;BME280;53766;50.280;19.160;2022-10-20T09:25:31;99503.88;;;18.28;52.08
66857;BME280;53766;50.280;19.160;2022-10-20T09:27:59;99508.22;;;18.29;52.10
66857;BME280;53766;50.280;19.160;2022-10-20T09:32:57;99506.53;;;18.28;52.07
66857;BME280;53766;50.280;19.160;2022-10-20T09:35:30;99513.53;;;18.29;51.94
66857;BME280;53766;50.280;19.160;2022-10-20T09:43:25;99505.34;;;18.31;51.93
66857;BME280;53766;50.280;19.160;2022-10-20T09:45:59;99499.19;;;18.30;51.82
66857;BME280;53766;50.280;19.160;2022-10-20T09:48:36;99494.69;;;18.31;51.80
66857;BME280;53766;50.280;19.160;2022-10-20T09:51:06;99496.34;;;18.32;51.93
66857;BME280;53766;50.280;19.160;2022-10-20T09:56:47;99490.00;;;18.33;51.92
66857;BME280;53766;50.280;19.160;2022-10-20T09:59:25;99505.00;;;18.34;51.77
66857;BME280;53766;50.280;19.160;2022-10-20T10:02:00;99492.66;;;18.33;51.71
66857;BME280;53766;50.280;19.160;2022-10-20T10:04:34;99500.50;;;18.35;51.87
66857;BME280;53766;50.280;19.160;2022-10-20T10:07:03;99494.34;;;18.34;51.77
66857;BME280;53766;50.280;19.160;2022-10-20T10:09:34;99492.31;;;18.36;51.74
66857;BME280;53766;50.280;19.160;2022-10-20T10:20:27;99485.31;;;18.35;51.80
66857;BME280;53766;50.280;19.160;2022-10-20T10:25:46;99479.63;;;18.38;51.83
66857;BME280;53766;50.280;19.160;2022-10-20T10:28:26;99484.97;;;18.38;51.70
66857;BME280;53766;50.280;19.160;2022-10-20T10:31:20;99481.28;;;18.39;51.62
66857;BME280;53766;50.280;19.160;2022-10-20T10:36:42;99471.44;;;18.40;51.68
66857;BME280;53766;50.280;19.160;2022-10-20T10:39:12;99459.13;;;18.39;51.69
66857;BME280;53766;50.280;19.160;2022-10-20T10:42:02;99464.28;;;18.40;51.72
66857;BME280;53766;50.280;19.160;2022-10-20T10:44:36;99461.63;;;18.40;51.67
66857;BME280;53766;50.280;19.160;2022-10-20T10:55:56;99450.59;;;18.43;51.69
66857;BME280;53766;50.280;19.160;2022-10-20T10:58:46;99446.06;;;18.44;51.60
66857;BME280;53766;50.280;19.160;2022-10-20T11:01:48;99440.94;;;18.42;51.75
66857;BME280;53766;50.280;19.160;2022-10-20T11:10:27;99439.09;;;18.43;51.68
66857;BME280;53766;50.280;19.160;2022-10-20T11:27:13;99418.75;;;18.42;51.56
66857;BME280;53766;50.280;19.160;2022-10-20T11:32:41;99395.94;;;18.39;51.61
66857;BME280;53766;50.280;19.160;2022-10-20T11:35:15;99396.97;;;18.38;51.48
66857;BME280;53766;50.280;19.160;2022-10-20T11:40:42;99388.97;;;18.38;51.43
66857;BME280;53766;50.280;19.160;2022-10-20T11:46:18;99379.13;;;18.39;51.58
66857;BME280;53766;50.280;19.160;2022-10-20T11:48:50;99378.94;;;18.40;51.51
66857;BME280;53766;50.280;19.160;2022-10-20T11:59:58;99364.09;;;18.38;51.39
66857;BME280;53766;50.280;19.160;2022-10-20T12:07:49;99349.94;;;18.37;51.38
66857;BME280;53766;50.280;19.160;2022-10-20T12:11:04;99349.13;;;18.37;51.55
66857;BME280;53766;50.280;19.160;2022-10-20T12:14:00;99343.78;;;18.37;51.54
66857;BME280;53766;50.280;19.160;2022-10-20T12:19:29;99348.31;;;18.36;51.29
66857;BME280;53766;50.280;19.160;2022-10-20T12:27:26;99327.97;;;18.35;51.47
66857;BME280;53766;50.280;19.160;2022-10-20T12:33:17;99324.31;;;18.36;50.99
66857;BME280;53766;50.280;19.160;2022-10-20T12:38:50;99319.16;;;18.35;51.39
66857;BME280;53766;50.280;19.160;2022-10-20T12:41:33;99316.47;;;18.35;51.38
66857;BME280;53766;50.280;19.160;2022-10-20T12:44:05;99317.94;;;18.37;51.39
66857;BME280;53766;50.280;19.160;2022-10-20T12:46:40;99315.47;;;18.36;51.33
66857;BME280;53766;50.280;19.160;2022-10-20T12:49:20;99313.63;;;18.36;51.52
66857;BME280;53766;50.280;19.160;2022-10-20T12:51:52;99301.13;;;18.37;51.35
66857;BME280;53766;50.280;19.160;2022-10-20T12:54:54;99301.94;;;18.37;51.32
66857;BME280;53766;50.280;19.160;2022-10-20T12:57:31;99306.28;;;18.38;51.22
66857;BME280;53766;50.280;19.160;2022-10-20T13:00:06;99298.28;;;18.38;51.19
66857;BME280;53766;50.280;19.160;2022-10-20T13:02:51;99296.25;;;18.40;51.28
66857;BME280;53766;50.280;19.160;2022-10-20T13:07:59;99296.91;;;18.42;51.16
66857;BME280;53766;50.280;19.160;2022-10-20T13:23:13;99292.31;;;18.51;51.07
66857;BME280;53766;50.280;19.160;2022-10-20T13:25:50;99285.13;;;18.52;51.15
66857;BME280;53766;50.280;19.160;2022-10-20T13:28:28;99284.09;;;18.53;51.21
66857;BME280;53766;50.280;19.160;2022-10-20T13:31:27;99286.59;;;18.54;51.29
66857;BME280;53766;50.280;19.160;2022-10-20T13:50:09;99283.38;;;18.59;51.30
66857;BME280;53766;50.280;19.160;2022-10-20T13:52:40;99280.53;;;18.60;51.31
66857;BME280;53766;50.280;19.160;2022-10-20T13:55:16;99281.53;;;18.59;51.39
66857;BME280;53766;50.280;19.160;2022-10-20T13:57:52;99270.69;;;18.61;51.43
66857;BME280;53766;50.280;19.160;2022-10-20T14:00:30;99271.50;;;18.61;51.24
66857;BME280;53766;50.280;19.160;2022-10-20T14:03:02;99264.34;;;18.62;51.31
66857;BME280;53766;50.280;19.160;2022-10-20T14:05:36;99260.66;;;18.63;51.24
66857;BME280;53766;50.280;19.160;2022-10-20T14:08:12;99267.00;;;18.62;51.31
66857;BME280;53766;50.280;19.160;2022-10-20T14:10:52;99263.31;;;18.63;51.39
66857;BME280;53766;50.280;19.160;2022-10-20T14:13:24;99260.66;;;18.63;51.47
66857;BME280;53766;50.280;19.160;2022-10-20T14:15:55;99262.28;;;18.64;51.25
66857;BME280;53766;50.280;19.160;2022-10-20T14:18:28;99265.81;;;18.64;51.33
66857;BME280;53766;50.280;19.160;2022-10-20T14:23:23;99261.28;;;18.65;51.34
66857;BME280;53766;50.280;19.160;2022-10-20T14:25:52;99266.63;;;18.65;51.51
66857;BME280;53766;50.280;19.160;2022-10-20T14:28:21;99261.28;;;18.65;51.49
66857;BME280;53766;50.280;19.160;2022-10-20T14:30:49;99262.13;;;18.65;51.36
66857;BME280;53766;50.280;19.160;2022-10-20T14:33:17;99261.28;;;18.65;51.42
66857;BME280;53766;50.280;19.160;2022-10-20T14:35:50;99257.16;;;18.62;51.23
66857;BME280;53766;50.280;19.160;2022-10-20T14:38:36;99257.97;;;18.63;51.37
66857;BME280;53766;50.280;19.160;2022-10-20T14:41:06;99257.97;;;18.63;51.36
66857;BME280;53766;50.280;19.160;2022-10-20T14:43:37;99252.66;;;18.63;51.40
66857;BME280;53766;50.280;19.160;2022-10-20T14:46:08;99256.34;;;18.62;51.62
66857;BME280;53766;50.280;19.160;2022-10-20T14:48:43;99262.50;;;18.62;51.39
66857;BME280;53766;50.280;19.160;2022-10-20T14:51:42;99255.50;;;18.61;51.45
66857;BME280;53766;50.280;19.160;2022-10-20T14:56:52;99252.00;;;18.61;51.32
66857;BME280;53766;50.280;19.160;2022-10-20T14:59:22;99247.50;;;18.61;51.45
66857;BME280;53766;50.280;19.160;2022-10-20T15:01:56;99246.66;;;18.61;51.40
66857;BME280;53766;50.280;19.160;2022-10-20T15:04:25;99245.03;;;18.60;51.34
66857;BME280;53766;50.280;19.160;2022-10-20T15:07:19;99239.06;;;18.58;51.36
66857;BME280;53766;50.280;19.160;2022-10-20T15:09:52;99239.22;;;18.56;51.51
66857;BME280;53766;50.280;19.160;2022-10-20T15:12:37;99245.56;;;18.55;51.43
66857;BME280;53766;50.280;19.160;2022-10-20T15:15:16;99230.56;;;18.54;51.52
66857;BME280;53766;50.280;19.160;2022-10-20T15:20:42;99236.09;;;18.53;51.49
66857;BME280;53766;50.280;19.160;2022-10-20T15:28:38;99231.13;;;18.49;51.41
66857;BME280;53766;50.280;19.160;2022-10-20T15:31:16;99224.13;;;18.48;51.42
66857;BME280;53766;50.280;19.160;2022-10-20T15:33:46;99218.81;;;18.48;51.32
66857;BME280;53766;50.280;19.160;2022-10-20T15:38:42;99223.69;;;18.45;50.88
66857;BME280;53766;50.280;19.160;2022-10-20T15:41:15;99217.53;;;18.44;50.88
66857;BME280;53766;50.280;19.160;2022-10-20T15:43:42;99214.22;;;18.42;50.87
66857;BME280;53766;50.280;19.160;2022-10-20T15:46:11;99218.72;;;18.42;50.83
66857;BME280;53766;50.280;19.160;2022-10-20T15:48:40;99205.59;;;18.40;50.76
66857;BME280;53766;50.280;19.160;2022-10-20T15:51:34;99203.91;;;18.39;50.73
66857;BME280;53766;50.280;19.160;2022-10-20T15:54:02;99212.94;;;18.38;50.72
66857;BME280;53766;50.280;19.160;2022-10-20T15:56:31;99212.94;;;18.38;50.59
66857;BME280;53766;50.280;19.160;2022-10-20T15:59:00;99216.59;;;18.37;50.63
66857;BME280;53766;50.280;19.160;2022-10-20T16:01:28;99212.28;;;18.36;50.63
66857;BME280;53766;50.280;19.160;2022-10-20T16:03:56;99214.16;;;18.36;50.63